This is the latest recevied weather packets stored in our database for station/object F5ZMN-13. If no packets are shown the sender has not sent any weather packets the latest 10 day(s).
| Time | Temp. | Humidity | Pressure | Rain* | Wind** | Luminosity | Snow |
|---|---|---|---|---|---|---|---|
| 1787692333 | 26.11° C | 57% | 1017.1 hPa | - | - | - | - |
| 1787691718 | 26.11° C | 57% | 1017 hPa | - | - | - | - |
| 1787691103 | 26.11° C | 57% | 1017 hPa | - | - | - | - |
| 1787690488 | 26.11° C | 57% | 1016.8 hPa | - | - | - | - |
| 1787689874 | 26.11° C | 57% | 1016.7 hPa | - | - | - | - |
| 1787689258 | 26.11° C | 57% | 1016.4 hPa | - | - | - | - |
| 1787688643 | 26.11° C | 57% | 1016.2 hPa | - | - | - | - |
| 1787688028 | 26.11° C | 58% | 1016.2 hPa | - | - | - | - |
| 1787687413 | 26.11° C | 58% | 1016.2 hPa | - | - | - | - |
| 1787686798 | 26.11° C | 58% | 1016.2 hPa | - | - | - | - |
| 1787686183 | 26.11° C | 59% | 1016 hPa | - | - | - | - |
| 1787685568 | 26.11° C | 59% | 1015.9 hPa | - | - | - | - |
| 1787684953 | 25.56° C | 62% | 1015.8 hPa | - | - | - | - |
| 1787684338 | 25° C | 56% | 1015.8 hPa | - | - | - | - |
| 1787683723 | 25.56° C | 61% | 1015.7 hPa | - | - | - | - |
| 1787683108 | 25° C | 54% | 1015.7 hPa | - | - | - | - |
| 1787682493 | 25.56° C | 58% | 1015.8 hPa | - | - | - | - |
| 1787681878 | 25.56° C | 57% | 1015.7 hPa | - | - | - | - |
| 1787681263 | 25.56° C | 58% | 1015.6 hPa | - | - | - | - |
| 1787680648 | 25° C | 51% | 1015.6 hPa | - | - | - | - |
| 1787680033 | 25° C | 50% | 1015.5 hPa | - | - | - | - |
| 1787679418 | 25.56° C | 51% | 1015.5 hPa | - | - | - | - |
| 1787678802 | 26.11° C | 53% | 1015.5 hPa | - | - | - | - |
| 1787678188 | 26.67° C | 52% | 1015.5 hPa | - | - | - | - |
| 1787677572 | 26.11° C | 48% | 1015.5 hPa | - | - | - | - |
* Rain since midnight (hover to see other rain measurements)
** Current wind speed in m/s (hover to see current wind gust speed)